createdAt,value
2018-08-23T00:00:18.379Z,15.18
2018-08-23T00:02:55.292Z,16.42
2018-08-23T00:05:31.641Z,16.93
2018-08-23T00:08:15.091Z,16.60
2018-08-23T00:10:52.118Z,16.82
2018-08-23T00:13:28.827Z,15.95
2018-08-23T00:16:04.754Z,16.57
2018-08-23T00:18:41.107Z,16.00
2018-08-23T00:21:21.573Z,16.15
2018-08-23T00:26:08.643Z,16.63
2018-08-23T00:29:58.601Z,16.10
2018-08-23T00:32:35.105Z,16.85
2018-08-23T00:35:14.274Z,16.00
2018-08-23T00:37:50.642Z,17.23
2018-08-23T00:40:26.398Z,15.90
2018-08-23T00:43:08.089Z,17.10
2018-08-23T00:45:44.638Z,16.77
2018-08-23T00:48:20.289Z,16.60
2018-08-23T00:51:02.070Z,16.45
2018-08-23T00:53:39.133Z,17.05
2018-08-23T00:56:21.631Z,16.73
2018-08-23T00:59:01.442Z,16.23
2018-08-23T01:01:37.507Z,17.10
2018-08-23T01:04:13.626Z,17.00
2018-08-23T01:06:49.487Z,17.92
2018-08-23T01:09:26.662Z,17.23
2018-08-23T01:12:02.331Z,17.50
2018-08-23T01:14:38.116Z,17.40
2018-08-23T01:17:21.609Z,17.02
2018-08-23T01:20:01.666Z,16.52
2018-08-23T01:22:37.305Z,16.53
2018-08-23T01:25:13.321Z,16.57
2018-08-23T01:27:49.651Z,17.27
2018-08-23T01:30:26.128Z,17.10
2018-08-23T01:33:01.857Z,17.48
2018-08-23T01:35:37.626Z,17.50
2018-08-23T01:38:14.045Z,17.60
2018-08-23T01:40:49.689Z,17.07
2018-08-23T01:43:26.834Z,16.73
2018-08-23T01:47:18.854Z,16.60
2018-08-23T01:51:55.500Z,17.10
2018-08-23T01:54:31.321Z,17.50
2018-08-23T01:57:07.487Z,17.35
2018-08-23T01:59:43.367Z,17.62
2018-08-23T02:02:21.155Z,16.97
2018-08-23T02:04:56.949Z,16.95
2018-08-23T02:07:32.939Z,16.70
2018-08-23T02:10:08.845Z,17.25
2018-08-23T02:12:47.533Z,17.37
2018-08-23T02:15:23.670Z,17.10
2018-08-23T02:18:00.514Z,17.15
2018-08-23T02:20:36.428Z,17.73
2018-08-23T02:23:12.302Z,17.37
2018-08-23T02:25:48.314Z,17.30
2018-08-23T02:28:23.871Z,16.60
2018-08-23T02:31:00.010Z,16.83
2018-08-23T02:33:35.904Z,17.07
2018-08-23T02:39:11.686Z,14.67
2018-08-23T02:41:48.357Z,11.30
2018-08-23T02:44:25.877Z,11.73
2018-08-23T02:47:01.544Z,10.97
2018-08-23T02:49:37.096Z,10.10
2018-08-23T02:52:12.927Z,7.00
2018-08-23T02:54:48.679Z,7.30
2018-08-23T02:57:24.318Z,8.50
2018-08-23T02:59:59.685Z,8.58
2018-08-23T03:04:19.077Z,9.53
2018-08-23T03:07:04.704Z,9.00
2018-08-23T03:09:43.383Z,9.50
2018-08-23T03:12:21.083Z,10.00
2018-08-23T03:14:57.044Z,9.70
2018-08-23T03:17:36.074Z,9.83
2018-08-23T03:21:30.473Z,8.40
2018-08-23T03:24:06.885Z,9.15
2018-08-23T03:26:43.312Z,9.33
2018-08-23T03:29:18.904Z,11.10
2018-08-23T03:31:54.513Z,9.37
2018-08-23T03:34:30.498Z,9.27
2018-08-23T03:37:06.368Z,7.70
2018-08-23T03:39:42.710Z,11.12
2018-08-23T03:42:18.706Z,9.68
2018-08-23T03:44:57.432Z,7.40
2018-08-23T03:47:41.045Z,8.80
2018-08-23T03:50:16.918Z,9.60
2018-08-23T03:52:54.729Z,8.10
2018-08-23T03:56:35.099Z,8.45
2018-08-23T03:59:10.936Z,7.90
2018-08-23T04:01:46.433Z,7.00
2018-08-23T04:04:22.321Z,7.95
2018-08-23T04:06:58.062Z,7.75
2018-08-23T04:09:33.919Z,7.60
2018-08-23T04:12:11.041Z,6.97
2018-08-23T04:14:47.033Z,7.10
2018-08-23T04:17:22.684Z,7.77
2018-08-23T04:19:58.709Z,6.42
2018-08-23T04:22:34.129Z,7.30
2018-08-23T04:25:10.282Z,6.67
2018-08-23T04:27:46.056Z,6.53
2018-08-23T04:30:22.153Z,9.37
2018-08-23T04:32:58.062Z,7.03
2018-08-23T04:35:33.988Z,6.97
2018-08-23T04:38:09.676Z,7.10
2018-08-23T04:41:37.055Z,6.50
2018-08-23T04:44:15.009Z,8.40
2018-08-23T04:46:50.734Z,7.33
2018-08-23T04:52:17.748Z,6.45
2018-08-23T04:54:53.591Z,5.75
2018-08-23T04:57:29.527Z,7.08
2018-08-23T05:00:05.596Z,7.05
2018-08-23T05:02:41.512Z,5.85
2018-08-23T05:05:17.904Z,6.12
2018-08-23T05:07:53.725Z,5.55
2018-08-23T05:10:29.337Z,6.67
2018-08-23T05:13:04.918Z,6.30
2018-08-23T05:15:40.706Z,6.43
2018-08-23T05:18:16.219Z,6.63
2018-08-23T05:20:51.945Z,7.03
2018-08-23T05:23:29.150Z,6.37
2018-08-23T05:26:10.490Z,6.22
2018-08-23T05:28:52.069Z,7.00
2018-08-23T05:31:28.113Z,7.07
2018-08-23T05:34:10.319Z,7.47
2018-08-23T05:36:45.987Z,6.55
2018-08-23T05:39:22.075Z,6.45
2018-08-23T05:41:58.155Z,5.67
2018-08-23T05:45:59.944Z,6.97
2018-08-23T05:48:35.741Z,7.63
2018-08-23T05:51:15.722Z,8.40
2018-08-23T05:53:54.385Z,8.13
2018-08-23T05:56:30.768Z,6.27
2018-08-23T05:59:14.935Z,6.57
2018-08-23T06:01:51.872Z,6.20
2018-08-23T06:04:42.088Z,6.07
2018-08-23T06:07:18.463Z,5.50
2018-08-23T06:09:54.990Z,5.08
2018-08-23T06:12:37.427Z,5.87
2018-08-23T06:17:59.930Z,5.40
2018-08-23T06:20:36.091Z,5.95
2018-08-23T06:23:11.993Z,5.27
2018-08-23T06:25:48.180Z,6.10
2018-08-23T06:28:28.242Z,5.47
2018-08-23T06:31:05.280Z,5.80
2018-08-23T06:33:45.949Z,5.95
2018-08-23T06:36:22.766Z,6.08
2018-08-23T06:39:04.115Z,5.70
2018-08-23T06:41:40.717Z,5.78
2018-08-23T06:44:16.952Z,6.45
2018-08-23T06:46:53.753Z,7.30
2018-08-23T06:49:29.767Z,6.33
2018-08-23T06:52:19.518Z,5.95
2018-08-23T06:54:55.765Z,6.53
2018-08-23T06:57:36.221Z,6.35
2018-08-23T07:00:12.757Z,6.23
2018-08-23T07:02:51.774Z,7.08
2018-08-23T07:05:28.254Z,6.83
2018-08-23T07:08:04.736Z,6.80
2018-08-23T07:10:40.890Z,7.40
2018-08-23T07:13:16.929Z,7.60
2018-08-23T07:15:57.145Z,7.20
2018-08-23T07:18:34.806Z,5.92
2018-08-23T07:21:11.153Z,6.95
2018-08-23T07:23:47.013Z,7.20
2018-08-23T07:26:23.012Z,6.20
2018-08-23T07:28:58.956Z,6.43
2018-08-23T07:31:35.973Z,6.35
2018-08-23T07:34:11.956Z,6.53
2018-08-23T07:36:47.899Z,6.00
2018-08-23T07:39:24.044Z,7.30
2018-08-23T07:41:59.998Z,6.47
2018-08-23T07:44:36.162Z,8.87
2018-08-23T07:47:12.795Z,8.43
2018-08-23T07:49:48.822Z,8.50
2018-08-23T07:52:24.961Z,7.90
2018-08-23T07:55:02.145Z,8.20
2018-08-23T07:57:39.290Z,8.38
2018-08-23T08:00:41.233Z,7.83
2018-08-23T08:03:17.979Z,8.30
2018-08-23T08:05:54.254Z,8.20
2018-08-23T08:08:30.635Z,9.08
2018-08-23T08:11:07.184Z,7.83
2018-08-23T08:13:43.646Z,7.22
2018-08-23T08:16:22.797Z,7.03
2018-08-23T08:19:47.433Z,8.30
2018-08-23T08:22:24.154Z,10.08
2018-08-23T08:25:58.766Z,11.40
2018-08-23T08:28:34.804Z,9.88
2018-08-23T08:31:11.561Z,12.05
2018-08-23T08:33:47.819Z,10.40
2018-08-23T08:36:28.622Z,10.97
2018-08-23T08:39:06.110Z,10.48
2018-08-23T08:41:42.557Z,9.63
2018-08-23T08:44:18.999Z,10.20
2018-08-23T08:46:55.805Z,10.93
2018-08-23T08:49:35.981Z,10.88
2018-08-23T08:52:12.198Z,10.67
2018-08-23T08:54:48.630Z,10.60
2018-08-23T08:57:29.263Z,10.48
2018-08-23T09:00:05.042Z,10.00
2018-08-23T09:02:41.181Z,9.73
2018-08-23T09:05:17.702Z,9.47
2018-08-23T09:07:53.813Z,9.15
2018-08-23T09:10:29.718Z,9.37
2018-08-23T09:13:06.389Z,10.43
2018-08-23T09:15:42.486Z,9.68
2018-08-23T09:18:19.006Z,9.15
2018-08-23T09:20:57.806Z,8.40
2018-08-23T09:23:34.317Z,9.00
2018-08-23T09:26:09.759Z,8.48
2018-08-23T09:28:45.831Z,8.43
2018-08-23T09:31:22.156Z,9.03
2018-08-23T09:33:58.489Z,9.90
2018-08-23T09:36:34.428Z,10.20
2018-08-23T09:39:13.236Z,12.80
2018-08-23T09:41:49.377Z,10.63
2018-08-23T09:44:25.720Z,11.37
2018-08-23T09:47:05.549Z,11.10
2018-08-23T09:49:41.859Z,11.33
2018-08-23T09:52:18.575Z,11.83
2018-08-23T09:54:54.943Z,10.00
2018-08-23T09:57:30.865Z,10.70
2018-08-23T10:00:07.454Z,12.30
2018-08-23T10:02:48.180Z,11.85
2018-08-23T10:05:28.388Z,11.80
2018-08-23T10:08:08.513Z,11.30
2018-08-23T10:10:48.384Z,11.37
2018-08-23T10:13:28.592Z,10.63
2018-08-23T10:16:08.391Z,10.90
2018-08-23T10:18:48.484Z,10.30
2018-08-23T10:21:28.854Z,11.53
2018-08-23T10:24:19.060Z,10.50
2018-08-23T10:26:56.190Z,11.10
2018-08-23T10:29:32.468Z,11.68
2018-08-23T10:32:08.535Z,11.18
2018-08-23T10:34:45.073Z,11.10
2018-08-23T10:37:21.083Z,10.40
2018-08-23T10:39:57.575Z,10.17
2018-08-23T10:42:33.913Z,10.28
2018-08-23T10:45:10.918Z,9.68
2018-08-23T10:47:51.053Z,9.77
2018-08-23T10:50:27.352Z,9.80
2018-08-23T10:53:03.244Z,10.47
2018-08-23T10:55:39.350Z,8.40
2018-08-23T10:58:15.678Z,8.40
2018-08-23T11:00:51.933Z,10.23
2018-08-23T11:03:28.256Z,8.18
2018-08-23T11:06:04.005Z,10.10
2018-08-23T11:08:41.079Z,10.43
2018-08-23T11:11:21.435Z,10.08
2018-08-23T11:13:57.826Z,11.40
2018-08-23T11:16:38.054Z,11.53
2018-08-23T11:19:17.947Z,10.60
2018-08-23T11:21:54.457Z,11.45
2018-08-23T11:24:30.529Z,10.45
2018-08-23T11:27:07.264Z,10.23
2018-08-23T11:29:43.496Z,10.73
2018-08-23T11:32:20.060Z,11.05
2018-08-23T11:34:56.105Z,11.87
2018-08-23T11:37:32.265Z,10.40
2018-08-23T11:40:08.735Z,10.80
2018-08-23T11:42:44.835Z,10.32
2018-08-23T11:45:21.137Z,10.08
2018-08-23T11:47:57.328Z,8.20
2018-08-23T11:50:34.051Z,7.80
2018-08-23T11:53:10.166Z,10.27
2018-08-23T11:55:46.692Z,8.30
2018-08-23T11:58:22.888Z,9.33
2018-08-23T12:01:03.333Z,9.40
2018-08-23T12:03:39.276Z,8.40
2018-08-23T12:06:17.069Z,9.60
2018-08-23T12:08:53.299Z,9.60
2018-08-23T12:11:30.118Z,9.70
2018-08-23T12:14:06.999Z,8.85
2018-08-23T12:16:43.333Z,10.08
2018-08-23T12:19:19.801Z,10.10
2018-08-23T12:21:56.018Z,10.53
2018-08-23T12:24:32.512Z,10.50
2018-08-23T12:27:08.792Z,9.75
2018-08-23T12:29:45.146Z,10.15
2018-08-23T12:32:24.070Z,9.65
2018-08-23T12:35:00.572Z,10.68
2018-08-23T12:37:41.053Z,10.45
2018-08-23T12:40:21.121Z,10.50
2018-08-23T12:42:57.599Z,10.97
2018-08-23T12:45:34.083Z,10.88
2018-08-23T12:48:10.713Z,9.77
2018-08-23T12:50:47.112Z,9.70
2018-08-23T12:53:23.303Z,9.75
2018-08-23T12:55:59.718Z,10.90
2018-08-23T12:58:36.125Z,10.40
2018-08-23T13:01:12.303Z,10.05
2018-08-23T13:03:48.502Z,10.43
2018-08-23T13:06:24.971Z,10.80
2018-08-23T13:09:01.608Z,10.80
2018-08-23T13:11:38.002Z,10.13
2018-08-23T13:14:14.582Z,9.63
2018-08-23T13:16:51.159Z,10.13
2018-08-23T13:19:27.331Z,10.05
2018-08-23T13:22:05.454Z,9.97
2018-08-23T13:24:45.856Z,10.68
2018-08-23T13:27:22.075Z,10.33
2018-08-23T13:29:58.640Z,9.43
2018-08-23T13:32:35.113Z,10.08
2018-08-23T13:35:11.514Z,10.18
2018-08-23T13:37:48.136Z,9.70
2018-08-23T13:40:24.565Z,9.23
2018-08-23T13:43:00.915Z,9.48
2018-08-23T13:45:37.312Z,9.37
2018-08-23T13:48:13.361Z,9.47
2018-08-23T13:50:49.336Z,10.03
2018-08-23T13:53:25.500Z,10.87
2018-08-23T13:56:01.971Z,10.53
2018-08-23T13:58:38.257Z,10.70
2018-08-23T14:01:15.159Z,11.00
2018-08-23T14:03:51.417Z,10.60
2018-08-23T14:06:28.152Z,11.55
2018-08-23T14:09:05.509Z,11.48
2018-08-23T14:11:41.768Z,10.77
2018-08-23T14:14:18.141Z,11.30
2018-08-23T14:16:54.052Z,10.80
2018-08-23T14:19:30.797Z,11.30
2018-08-23T14:22:06.912Z,9.95
2018-08-23T14:24:43.033Z,11.12
2018-08-23T14:27:19.048Z,9.88
2018-08-23T14:29:56.033Z,9.60
2018-08-23T14:32:32.182Z,10.65
2018-08-23T14:35:08.269Z,10.50
2018-08-23T14:37:44.330Z,10.50
2018-08-23T14:40:21.694Z,9.20
2018-08-23T14:42:57.945Z,9.58
2018-08-23T14:45:35.496Z,10.10
2018-08-23T14:48:20.725Z,9.47
2018-08-23T14:50:57.343Z,9.50
2018-08-23T14:53:33.781Z,10.90
2018-08-23T14:56:14.149Z,10.32
2018-08-23T14:58:50.334Z,10.53
2018-08-23T15:01:27.151Z,10.40
2018-08-23T15:04:03.481Z,9.50
2018-08-23T15:06:39.989Z,10.60
2018-08-23T15:09:16.269Z,10.13
2018-08-23T15:11:52.365Z,11.20
2018-08-23T15:14:28.570Z,11.30
2018-08-23T15:17:04.588Z,11.35
2018-08-23T15:19:41.285Z,10.72
2018-08-23T15:22:17.164Z,11.30
2018-08-23T15:24:53.542Z,10.78
2018-08-23T15:27:33.206Z,11.13
2018-08-23T15:30:09.174Z,10.60
2018-08-23T15:32:45.223Z,10.70
2018-08-23T15:35:21.168Z,13.90
2018-08-23T15:37:57.394Z,15.60
2018-08-23T15:40:33.448Z,18.98
2018-08-23T15:43:09.940Z,20.77
2018-08-23T15:45:46.523Z,20.80
2018-08-23T15:48:23.195Z,21.95
2018-08-23T15:51:00.157Z,20.30
2018-08-23T15:53:36.372Z,21.52
2018-08-23T15:56:12.435Z,22.17
2018-08-23T15:58:48.974Z,22.52
2018-08-23T16:01:24.978Z,21.85
2018-08-23T16:04:01.428Z,22.45
2018-08-23T16:06:38.954Z,24.40
2018-08-23T16:09:16.172Z,23.67
2018-08-23T16:11:52.355Z,23.90
2018-08-23T16:14:28.538Z,24.37
2018-08-23T16:17:08.847Z,23.10
2018-08-23T16:19:49.422Z,22.55
2018-08-23T16:22:25.430Z,23.50
2018-08-23T16:25:02.596Z,24.17
2018-08-23T16:27:39.465Z,24.45
2018-08-23T16:30:16.144Z,24.33
2018-08-23T16:32:52.202Z,23.53
2018-08-23T16:35:28.816Z,24.65
2018-08-23T16:38:04.988Z,24.20
2018-08-23T16:40:41.847Z,23.20
2018-08-23T16:43:18.860Z,24.70
2018-08-23T16:45:55.525Z,24.80
2018-08-23T16:48:31.532Z,24.98
2018-08-23T16:51:07.900Z,24.65
2018-08-23T16:53:44.451Z,25.35
2018-08-23T16:56:20.692Z,25.30
2018-08-23T16:58:57.218Z,24.92
2018-08-23T17:01:33.474Z,24.13
2018-08-23T17:04:09.610Z,23.95
2018-08-23T17:06:46.013Z,24.95
2018-08-23T17:09:22.357Z,25.27
2018-08-23T17:11:58.611Z,24.80
2018-08-23T17:14:35.009Z,24.63
2018-08-23T17:17:15.025Z,25.48
2018-08-23T17:19:51.258Z,25.70
2018-08-23T17:22:27.388Z,25.23
2018-08-23T17:25:03.354Z,25.70
2018-08-23T17:27:40.116Z,25.88
2018-08-23T17:30:16.378Z,26.42
2018-08-23T17:32:52.781Z,25.07
2018-08-23T17:35:29.212Z,26.87
2018-08-23T17:38:09.487Z,25.15
2018-08-23T17:40:45.963Z,25.17
2018-08-23T17:46:19.633Z,26.42
2018-08-23T17:48:56.038Z,26.48
2018-08-23T17:51:32.449Z,26.37
2018-08-23T17:54:08.567Z,27.17
2018-08-23T17:56:45.048Z,27.58
2018-08-23T17:59:21.267Z,25.80
2018-08-23T18:01:57.494Z,26.80
2018-08-23T18:04:34.000Z,26.45
2018-08-23T18:07:10.399Z,26.62
2018-08-23T18:09:46.582Z,25.63
2018-08-23T18:12:22.800Z,26.27
2018-08-23T18:14:59.246Z,26.80
2018-08-23T18:17:35.592Z,26.02
2018-08-23T18:20:12.408Z,26.35
2018-08-23T18:22:48.717Z,26.25
2018-08-23T18:25:25.049Z,25.32
2018-08-23T18:28:01.738Z,25.92
2018-08-23T18:30:38.301Z,26.50
2018-08-23T18:33:14.568Z,26.12
2018-08-23T18:35:50.593Z,26.47
2018-08-23T18:38:27.408Z,27.02
2018-08-23T18:41:03.428Z,26.77
2018-08-23T18:43:39.413Z,27.20
2018-08-23T18:46:15.516Z,26.40
2018-08-23T18:48:51.842Z,27.03
2018-08-23T18:51:28.194Z,27.30
2018-08-23T18:54:04.606Z,27.73
2018-08-23T18:59:32.981Z,27.17
2018-08-23T19:02:09.287Z,27.02
2018-08-23T19:04:45.417Z,28.00
2018-08-23T19:07:25.462Z,28.00
2018-08-23T19:10:01.769Z,28.23
2018-08-23T19:15:15.252Z,28.17
2018-08-23T19:17:51.747Z,27.60
2018-08-23T19:20:28.185Z,28.40
2018-08-23T19:23:04.234Z,27.93
2018-08-23T19:25:40.382Z,28.85
2018-08-23T19:28:16.409Z,29.40
2018-08-23T19:30:52.640Z,29.07
2018-08-23T19:33:29.250Z,28.00
2018-08-23T19:36:05.699Z,29.27
2018-08-23T19:38:42.116Z,29.05
2018-08-23T19:41:18.537Z,28.30
2018-08-23T19:43:55.105Z,29.47
2018-08-23T19:46:35.641Z,30.48
2018-08-23T19:49:16.660Z,29.80
2018-08-23T19:51:52.642Z,30.07
2018-08-23T19:54:29.342Z,31.20
2018-08-23T19:57:05.265Z,30.60
2018-08-23T19:59:41.469Z,30.82
2018-08-23T20:02:17.602Z,29.67
2018-08-23T20:04:53.621Z,31.10
2018-08-23T20:07:30.245Z,29.52
2018-08-23T20:10:06.382Z,30.00
2018-08-23T20:12:42.440Z,29.95
2018-08-23T20:15:22.192Z,30.45
2018-08-23T20:17:59.362Z,30.97
2018-08-23T20:20:35.926Z,29.90
2018-08-23T20:23:14.035Z,30.80
2018-08-23T20:28:24.620Z,30.53
2018-08-23T20:31:00.584Z,31.83
2018-08-23T20:33:36.740Z,29.93
2018-08-23T20:36:13.042Z,31.68
2018-08-23T20:38:49.596Z,31.50
2018-08-23T20:41:26.020Z,32.05
2018-08-23T20:44:02.396Z,32.30
2018-08-23T20:46:39.059Z,32.15
2018-08-23T20:49:15.424Z,30.72
2018-08-23T20:51:51.935Z,29.97
2018-08-23T20:54:28.303Z,30.55
2018-08-23T20:57:04.615Z,32.23
2018-08-23T20:59:41.486Z,32.08
2018-08-23T21:02:17.727Z,31.53
2018-08-23T21:04:54.313Z,32.05
2018-08-23T21:07:30.678Z,32.42
2018-08-23T21:10:06.957Z,31.25
2018-08-23T21:12:43.095Z,31.85
2018-08-23T21:15:19.469Z,32.38
2018-08-23T21:20:43.502Z,34.00
2018-08-23T21:23:19.605Z,34.00
2018-08-23T21:25:56.173Z,34.48
2018-08-23T21:28:32.624Z,34.70
2018-08-23T21:31:09.046Z,35.50
2018-08-23T21:33:45.572Z,35.03
2018-08-23T21:36:21.708Z,34.67
2018-08-23T21:38:57.637Z,37.30
2018-08-23T21:41:34.040Z,37.28
2018-08-23T21:44:10.259Z,37.65
2018-08-23T21:46:46.658Z,37.98
2018-08-23T21:49:22.762Z,39.10
2018-08-23T21:51:59.299Z,38.23
2018-08-23T21:54:35.636Z,37.55
2018-08-23T21:57:12.319Z,37.50
2018-08-23T21:59:48.303Z,40.67
2018-08-23T22:02:24.294Z,40.83
2018-08-23T22:05:00.413Z,41.10
2018-08-23T22:07:36.272Z,41.95
2018-08-23T22:10:11.201Z,42.13
2018-08-23T22:12:46.708Z,41.57
2018-08-23T22:15:22.741Z,42.03
2018-08-23T22:17:58.318Z,42.30
2018-08-23T22:20:34.306Z,43.02
2018-08-23T22:23:11.145Z,43.95
2018-08-23T22:25:47.270Z,44.58
2018-08-23T22:28:23.125Z,44.80
2018-08-23T22:30:58.838Z,44.77
2018-08-23T22:33:34.723Z,47.05
2018-08-23T22:36:10.679Z,47.33
2018-08-23T22:38:46.329Z,46.45
2018-08-23T22:41:22.329Z,47.80
2018-08-23T22:43:58.257Z,47.23
2018-08-23T22:46:34.051Z,48.20
2018-08-23T22:49:10.670Z,48.85
2018-08-23T22:51:46.658Z,49.77
2018-08-23T22:54:22.241Z,49.73
2018-08-23T22:56:58.163Z,49.60
2018-08-23T22:59:34.541Z,51.37
2018-08-23T23:02:10.312Z,52.27
2018-08-23T23:04:46.269Z,49.10
2018-08-23T23:07:21.977Z,52.30
2018-08-23T23:09:58.082Z,53.87
2018-08-23T23:12:33.830Z,53.03
2018-08-23T23:15:12.961Z,53.65
2018-08-23T23:17:49.001Z,55.27
2018-08-23T23:20:24.509Z,54.13
2018-08-23T23:23:00.333Z,56.63
2018-08-23T23:25:36.533Z,55.95
2018-08-23T23:28:12.336Z,56.48
2018-08-23T23:30:48.242Z,56.10
2018-08-23T23:33:24.346Z,57.00
2018-08-23T23:35:59.992Z,57.40
2018-08-23T23:38:35.938Z,59.63
2018-08-23T23:41:11.936Z,59.53
2018-08-23T23:43:47.916Z,55.03
2018-08-23T23:46:23.726Z,58.60
2018-08-23T23:48:59.696Z,52.62
2018-08-23T23:51:35.675Z,58.60
2018-08-23T23:54:11.733Z,56.67
2018-08-23T23:56:48.363Z,59.57
2018-08-23T23:59:24.342Z,58.50
